createdAt,value
2023-06-04T00:02:15.902Z,98284.44
2023-06-04T00:04:42.480Z,98281.50
2023-06-04T00:07:08.897Z,98278.31
2023-06-04T00:09:35.245Z,98268.53
2023-06-04T00:12:01.691Z,98265.75
2023-06-04T00:14:28.197Z,98259.44
2023-06-04T00:16:54.599Z,98265.47
2023-06-04T00:19:21.330Z,98256.28
2023-06-04T00:21:47.687Z,98250.00
2023-06-04T00:24:14.253Z,98259.75
2023-06-04T00:26:40.863Z,98251.56
2023-06-04T00:29:07.212Z,98257.63
2023-06-04T00:31:33.724Z,98257.50
2023-06-04T00:34:00.204Z,98259.22
2023-06-04T00:36:26.553Z,98254.53
2023-06-04T00:38:52.918Z,98260.56
2023-06-04T00:41:19.241Z,98265.56
2023-06-04T00:43:45.681Z,98269.50
2023-06-04T00:46:13.212Z,98260.53
2023-06-04T00:48:39.570Z,98264.13
2023-06-04T00:51:06.869Z,98265.59
2023-06-04T00:53:33.382Z,98261.97
2023-06-04T00:55:59.802Z,98274.16
2023-06-04T00:58:26.373Z,98268.66
2023-06-04T01:00:56.050Z,98269.34
2023-06-04T01:03:26.554Z,98270.59
2023-06-04T01:06:26.950Z,98270.44
2023-06-04T01:08:54.859Z,98269.50
2023-06-04T01:11:38.994Z,98264.22
2023-06-04T01:14:07.007Z,98271.25
2023-06-04T01:16:42.063Z,98268.22
2023-06-04T01:19:33.194Z,98272.34
2023-06-04T01:22:10.290Z,98271.38
2023-06-04T01:24:40.302Z,98270.78
2023-06-04T01:27:07.201Z,98276.22
2023-06-04T01:29:33.966Z,98276.47
2023-06-04T01:32:00.741Z,98266.47
2023-06-04T01:34:27.173Z,98272.91
2023-06-04T01:36:53.503Z,98269.22
2023-06-04T01:39:19.899Z,98280.34
2023-06-04T01:41:46.225Z,98275.91
2023-06-04T01:44:12.715Z,98273.28
2023-06-04T01:46:39.067Z,98280.50
2023-06-04T01:49:05.466Z,98277.44
2023-06-04T01:51:31.905Z,98280.34
2023-06-04T01:53:58.277Z,98273.53
2023-06-04T01:56:24.639Z,98284.06
2023-06-04T01:58:51.133Z,98276.72
2023-06-04T02:01:17.508Z,98278.56
2023-06-04T02:03:43.947Z,98287.00
2023-06-04T02:06:10.525Z,98286.25
2023-06-04T02:08:36.865Z,98295.09
2023-06-04T02:11:03.286Z,98288.19
2023-06-04T02:13:29.891Z,98291.28
2023-06-04T02:15:56.254Z,98289.88
2023-06-04T02:18:22.629Z,98291.94
2023-06-04T02:20:50.577Z,98301.56
2023-06-04T02:23:19.103Z,98299.13
2023-06-04T02:25:46.483Z,98302.63
2023-06-04T02:28:13.834Z,98292.22
2023-06-04T02:30:40.408Z,98293.88
2023-06-04T02:33:06.809Z,98307.25
2023-06-04T02:35:33.216Z,98298.44
2023-06-04T02:37:59.721Z,98302.16
2023-06-04T02:40:26.529Z,98300.31
2023-06-04T02:42:54.006Z,98301.53
2023-06-04T02:45:20.598Z,98303.44
2023-06-04T02:47:47.245Z,98295.88
2023-06-04T02:50:15.070Z,98297.72
2023-06-04T02:52:43.890Z,98302.19
2023-06-04T02:55:11.321Z,98296.25
2023-06-04T02:57:37.761Z,98300.78
2023-06-04T03:00:05.024Z,98301.16
2023-06-04T03:02:31.402Z,98307.75
2023-06-04T03:04:57.746Z,98302.63
2023-06-04T03:07:24.201Z,98308.81
2023-06-04T03:09:51.034Z,98303.91
2023-06-04T03:12:17.584Z,98305.34
2023-06-04T03:14:43.903Z,98305.56
2023-06-04T03:17:10.231Z,98305.13
2023-06-04T03:19:38.028Z,98303.53
2023-06-04T03:22:06.069Z,98303.72
2023-06-04T03:24:37.551Z,98308.84
2023-06-04T03:27:04.947Z,98309.47
2023-06-04T03:29:32.474Z,98313.38
2023-06-04T03:31:59.207Z,98312.16
2023-06-04T03:34:25.544Z,98316.47
2023-06-04T03:36:55.771Z,98321.38
2023-06-04T03:39:22.490Z,98316.88
2023-06-04T03:41:49.280Z,98324.66
2023-06-04T03:44:16.910Z,98326.28
2023-06-04T03:46:44.797Z,98323.81
2023-06-04T03:49:11.869Z,98323.59
2023-06-04T03:51:39.023Z,98330.16
2023-06-04T03:54:05.667Z,98322.72
2023-06-04T03:56:32.484Z,98331.31
2023-06-04T03:58:59.056Z,98325.56
2023-06-04T04:01:25.450Z,98322.41
2023-06-04T04:03:52.434Z,98328.09
2023-06-04T04:06:19.952Z,98322.81
2023-06-04T04:08:46.230Z,98324.19
2023-06-04T04:11:13.985Z,98323.00
2023-06-04T04:13:40.602Z,98324.31
2023-06-04T04:16:07.057Z,98326.63
2023-06-04T04:18:37.402Z,98326.16
2023-06-04T04:21:05.046Z,98319.41
2023-06-04T04:23:32.277Z,98316.53
2023-06-04T04:26:01.632Z,98320.59
2023-06-04T04:28:28.020Z,98314.91
2023-06-04T04:30:54.493Z,98325.56
2023-06-04T04:33:20.896Z,98325.44
2023-06-04T04:35:47.322Z,98323.19
2023-06-04T04:38:13.766Z,98322.50
2023-06-04T04:40:40.089Z,98324.22
2023-06-04T04:43:06.467Z,98326.41
2023-06-04T04:45:32.800Z,98330.94
2023-06-04T04:47:59.170Z,98326.31
2023-06-04T04:50:25.559Z,98331.13
2023-06-04T04:52:51.988Z,98333.91
2023-06-04T04:55:18.344Z,98337.22
2023-06-04T04:57:44.701Z,98339.66
2023-06-04T05:00:11.623Z,98338.78
2023-06-04T05:02:38.029Z,98345.88
2023-06-04T05:05:05.162Z,98348.44
2023-06-04T05:07:31.587Z,98346.31
2023-06-04T05:09:57.920Z,98354.34
2023-06-04T05:12:26.557Z,98355.34
2023-06-04T05:14:54.040Z,98355.78
2023-06-04T05:17:20.422Z,98357.28
2023-06-04T05:19:46.774Z,98360.06
2023-06-04T05:22:13.148Z,98361.19
2023-06-04T05:24:39.515Z,98359.56
2023-06-04T05:27:05.933Z,98369.81
2023-06-04T05:29:32.285Z,98364.72
2023-06-04T05:31:58.690Z,98371.19
2023-06-04T05:34:25.285Z,98362.97
2023-06-04T05:36:51.615Z,98369.25
2023-06-04T05:39:17.973Z,98375.91
2023-06-04T05:41:44.306Z,98376.75
2023-06-04T05:44:10.652Z,98374.44
2023-06-04T05:46:36.996Z,98369.88
2023-06-04T05:49:03.470Z,98370.97
2023-06-04T05:51:29.846Z,98376.16
2023-06-04T05:53:56.157Z,98380.97
2023-06-04T05:56:22.477Z,98380.34
2023-06-04T05:58:52.946Z,98383.06
2023-06-04T06:01:19.353Z,98380.56
2023-06-04T06:03:45.802Z,98374.38
2023-06-04T06:06:12.163Z,98382.53
2023-06-04T06:08:38.492Z,98375.50
2023-06-04T06:11:05.732Z,98380.59
2023-06-04T06:13:32.958Z,98376.50
2023-06-04T06:15:59.338Z,98375.84
2023-06-04T06:18:25.711Z,98383.88
2023-06-04T06:20:52.023Z,98390.06
2023-06-04T06:23:18.490Z,98382.13
2023-06-04T06:25:44.996Z,98387.91
2023-06-04T06:28:11.311Z,98386.44
2023-06-04T06:30:37.614Z,98385.50
2023-06-04T06:33:04.044Z,98386.31
2023-06-04T06:35:30.397Z,98384.78
2023-06-04T06:37:56.744Z,98379.53
2023-06-04T06:40:23.238Z,98389.41
2023-06-04T06:42:50.480Z,98385.22
2023-06-04T06:45:16.764Z,98386.69
2023-06-04T06:47:43.177Z,98386.59
2023-06-04T06:50:09.740Z,98397.59
2023-06-04T06:52:36.039Z,98394.41
2023-06-04T06:55:02.471Z,98392.56
2023-06-04T06:57:28.808Z,98390.19
2023-06-04T06:59:55.118Z,98391.13
2023-06-04T07:02:21.647Z,98399.94
2023-06-04T07:04:48.491Z,98400.81
2023-06-04T07:07:15.804Z,98391.41
2023-06-04T07:09:44.303Z,98398.44
2023-06-04T07:12:10.647Z,98400.44
2023-06-04T07:14:36.973Z,98397.84
2023-06-04T07:17:03.554Z,98395.84
2023-06-04T07:19:29.956Z,98389.63
2023-06-04T07:21:56.274Z,98394.56
2023-06-04T07:24:23.016Z,98398.94
2023-06-04T07:26:49.393Z,98394.22
2023-06-04T07:29:15.824Z,98391.59
2023-06-04T07:31:42.982Z,98392.53
2023-06-04T07:34:09.253Z,98388.53
2023-06-04T07:36:35.639Z,98388.09
2023-06-04T07:39:02.009Z,98388.72
2023-06-04T07:41:28.337Z,98382.38
2023-06-04T07:43:54.674Z,98390.00
2023-06-04T07:46:21.241Z,98396.00
2023-06-04T07:48:47.684Z,98388.19
2023-06-04T07:51:14.556Z,98389.31
2023-06-04T07:53:41.704Z,98381.78
2023-06-04T07:56:08.061Z,98378.25
2023-06-04T07:58:34.381Z,98380.41
2023-06-04T08:01:00.703Z,98383.13
2023-06-04T08:03:27.171Z,98370.25
2023-06-04T08:05:53.761Z,98378.69
2023-06-04T08:08:20.140Z,98379.81
2023-06-04T08:10:46.601Z,98380.41
2023-06-04T08:13:12.949Z,98373.69
2023-06-04T08:15:39.295Z,98383.16
2023-06-04T08:18:05.781Z,98382.03
2023-06-04T08:20:32.195Z,98375.84
2023-06-04T08:22:58.634Z,98373.44
2023-06-04T08:25:24.975Z,98380.78
2023-06-04T08:27:51.313Z,98378.66
2023-06-04T08:30:17.756Z,98376.78
2023-06-04T08:32:44.392Z,98382.75
2023-06-04T08:35:10.765Z,98373.00
2023-06-04T08:37:37.256Z,98372.41
2023-06-04T08:40:03.890Z,98368.09
2023-06-04T08:42:32.107Z,98377.28
2023-06-04T08:44:59.349Z,98371.03
2023-06-04T08:47:26.515Z,98371.06
2023-06-04T08:49:55.636Z,98379.72
2023-06-04T08:52:22.148Z,98374.03
2023-06-04T08:54:52.244Z,98369.94
2023-06-04T08:57:19.908Z,98371.03
2023-06-04T08:59:47.411Z,98374.50
2023-06-04T09:02:15.517Z,98366.06
2023-06-04T09:04:45.646Z,98378.00
2023-06-04T09:07:14.113Z,98378.56
2023-06-04T09:09:42.925Z,98371.22
2023-06-04T09:12:22.533Z,98374.19
2023-06-04T09:14:49.220Z,98369.31
2023-06-04T09:17:15.537Z,98380.34
2023-06-04T09:19:41.902Z,98372.19
2023-06-04T09:22:08.301Z,98375.06
2023-06-04T09:24:41.610Z,98379.38
2023-06-04T09:27:15.356Z,98379.94
2023-06-04T09:30:02.045Z,98374.19
2023-06-04T09:32:31.250Z,98369.66
2023-06-04T09:35:12.900Z,98373.69
2023-06-04T09:37:44.126Z,98365.84
2023-06-04T09:40:11.053Z,98368.19
2023-06-04T09:42:45.125Z,98367.91
2023-06-04T09:45:12.088Z,98365.28
2023-06-04T09:47:42.381Z,98363.69
2023-06-04T09:50:09.571Z,98365.34
2023-06-04T09:52:36.018Z,98356.88
2023-06-04T09:55:02.358Z,98363.84
2023-06-04T09:57:30.295Z,98357.22
2023-06-04T09:59:57.882Z,98358.91
2023-06-04T10:02:28.072Z,98354.16
2023-06-04T10:04:55.974Z,98358.63
2023-06-04T10:07:24.629Z,98359.31
2023-06-04T10:09:52.602Z,98353.78
2023-06-04T10:12:26.542Z,98359.44
2023-06-04T10:15:12.184Z,98357.53
2023-06-04T10:17:38.765Z,98354.00
2023-06-04T10:20:05.809Z,98352.16
2023-06-04T10:22:32.948Z,98347.28
2023-06-04T10:25:00.211Z,98340.34
2023-06-04T10:27:26.742Z,98341.66
2023-06-04T10:29:53.612Z,98352.16
2023-06-04T10:32:20.450Z,98348.63
2023-06-04T10:34:47.943Z,98343.66
2023-06-04T10:37:21.984Z,98343.50
2023-06-04T10:42:18.583Z,98334.66
2023-06-04T10:44:49.882Z,98333.50
2023-06-04T10:47:23.769Z,98336.94
2023-06-04T10:49:55.285Z,98333.00
2023-06-04T10:52:24.639Z,98336.88
2023-06-04T10:54:51.008Z,98343.09
2023-06-04T10:57:19.060Z,98332.72
2023-06-04T10:59:55.862Z,98326.66
2023-06-04T11:02:22.339Z,98333.06
2023-06-04T11:05:00.094Z,98336.88
2023-06-04T11:07:26.672Z,98339.00
2023-06-04T11:09:53.337Z,98333.31
2023-06-04T11:12:19.775Z,98324.84
2023-06-04T11:14:59.601Z,98322.03
2023-06-04T11:17:26.079Z,98319.34
2023-06-04T11:19:52.451Z,98311.31
2023-06-04T11:22:18.794Z,98321.97
2023-06-04T11:24:45.378Z,98318.25
2023-06-04T11:27:20.747Z,98314.75
2023-06-04T11:29:54.889Z,98325.97
2023-06-04T11:32:24.815Z,98325.97
2023-06-04T11:34:51.356Z,98317.50
2023-06-04T11:37:17.710Z,98306.31
2023-06-04T11:39:44.043Z,98309.09
2023-06-04T11:42:10.931Z,98309.72
2023-06-04T11:44:37.226Z,98304.41
2023-06-04T11:47:09.508Z,98302.41
2023-06-04T11:49:37.244Z,98301.16
2023-06-04T11:52:04.791Z,98301.94
2023-06-04T11:54:31.275Z,98303.00
2023-06-04T11:56:58.039Z,98299.63
2023-06-04T11:59:24.611Z,98296.50
2023-06-04T12:01:51.137Z,98294.88
2023-06-04T12:04:19.641Z,98291.66
2023-06-04T12:06:59.543Z,98290.84
2023-06-04T12:09:29.812Z,98301.13
2023-06-04T12:12:00.277Z,98287.41
2023-06-04T12:14:29.301Z,98285.09
2023-06-04T12:16:56.684Z,98282.69
2023-06-04T12:19:23.443Z,98285.72
2023-06-04T12:22:00.756Z,98290.38
2023-06-04T12:24:27.242Z,98286.59
2023-06-04T12:27:02.566Z,98282.13
2023-06-04T12:29:29.169Z,98283.44
2023-06-04T12:32:04.013Z,98283.75
2023-06-04T12:34:30.688Z,98276.38
2023-06-04T12:36:57.038Z,98282.31
2023-06-04T12:39:23.495Z,98276.97
2023-06-04T12:41:50.070Z,98276.38
2023-06-04T12:44:16.444Z,98276.56
2023-06-04T12:46:42.934Z,98281.81
2023-06-04T12:49:09.413Z,98279.09
2023-06-04T12:51:35.750Z,98275.75
2023-06-04T12:54:02.124Z,98268.06
2023-06-04T12:56:28.596Z,98271.31
2023-06-04T12:58:54.949Z,98272.13
2023-06-04T13:01:21.384Z,98278.28
2023-06-04T13:03:47.898Z,98273.53
2023-06-04T13:06:14.565Z,98272.41
2023-06-04T13:08:41.079Z,98273.50
2023-06-04T13:11:07.685Z,98270.09
2023-06-04T13:13:34.299Z,98258.16
2023-06-04T13:16:00.713Z,98258.19
2023-06-04T13:18:27.335Z,98248.09
2023-06-04T13:20:53.754Z,98256.25
2023-06-04T13:23:20.162Z,98261.13
2023-06-04T13:25:46.616Z,98262.72
2023-06-04T13:28:12.995Z,98256.66
2023-06-04T13:30:39.944Z,98251.00
2023-06-04T13:33:07.106Z,98250.66
2023-06-04T13:35:33.867Z,98254.31
2023-06-04T13:38:00.273Z,98248.44
2023-06-04T13:40:26.870Z,98255.28
2023-06-04T13:42:53.194Z,98249.47
2023-06-04T13:45:19.634Z,98245.44
2023-06-04T13:47:46.275Z,98241.28
2023-06-04T13:50:12.713Z,98244.25
2023-06-04T13:52:39.133Z,98236.06
2023-06-04T13:55:05.919Z,98237.16
2023-06-04T13:57:32.193Z,98235.34
2023-06-04T13:59:58.566Z,98237.81
2023-06-04T14:02:25.179Z,98233.91
2023-06-04T14:04:53.549Z,98230.44
2023-06-04T14:07:20.480Z,98230.00
2023-06-04T14:09:46.837Z,98227.97
2023-06-04T14:12:13.278Z,98233.81
2023-06-04T14:14:39.634Z,98233.41
2023-06-04T14:17:06.754Z,98233.97
2023-06-04T14:19:33.962Z,98222.75
2023-06-04T14:22:00.322Z,98234.47
2023-06-04T14:24:26.806Z,98228.25
2023-06-04T14:26:53.146Z,98221.22
2023-06-04T14:29:19.501Z,98222.41
2023-06-04T14:31:45.894Z,98219.41
2023-06-04T14:34:12.444Z,98223.63
2023-06-04T14:36:38.789Z,98219.38
2023-06-04T14:39:05.129Z,98225.25
2023-06-04T14:41:31.484Z,98225.06
2023-06-04T14:43:57.861Z,98226.28
2023-06-04T14:46:24.209Z,98215.47
2023-06-04T14:48:50.577Z,98210.69
2023-06-04T14:51:16.979Z,98213.66
2023-06-04T14:53:43.321Z,98211.19
2023-06-04T14:56:09.761Z,98211.66
2023-06-04T14:58:36.108Z,98214.25
2023-06-04T15:01:02.610Z,98210.41
2023-06-04T15:03:29.042Z,98211.53
2023-06-04T15:06:03.519Z,98209.28
2023-06-04T15:08:37.385Z,98209.94
2023-06-04T15:11:03.814Z,98210.38
2023-06-04T15:13:30.223Z,98211.84
2023-06-04T15:15:56.582Z,98210.91
2023-06-04T15:18:23.009Z,98210.81
2023-06-04T15:20:49.443Z,98213.13
2023-06-04T15:23:15.766Z,98217.63
2023-06-04T15:25:42.066Z,98211.22
2023-06-04T15:28:08.503Z,98215.31
2023-06-04T15:30:34.938Z,98213.19
2023-06-04T15:33:01.404Z,98212.75
2023-06-04T15:35:28.016Z,98210.19
2023-06-04T15:37:54.596Z,98211.16
2023-06-04T15:40:21.071Z,98207.94
2023-06-04T15:42:47.440Z,98210.84
2023-06-04T15:45:14.118Z,98203.59
2023-06-04T15:47:40.518Z,98195.88
2023-06-04T15:50:07.528Z,98199.28
2023-06-04T15:52:33.849Z,98187.94
2023-06-04T15:55:00.186Z,98192.91
2023-06-04T15:57:26.623Z,98191.06
2023-06-04T15:59:53.025Z,98187.56
2023-06-04T16:02:19.481Z,98179.66
2023-06-04T16:04:45.842Z,98183.88
2023-06-04T16:07:12.189Z,98183.34
2023-06-04T16:09:38.632Z,98172.19
2023-06-04T16:12:05.226Z,98178.88
2023-06-04T16:14:31.617Z,98179.09
2023-06-04T16:16:58.072Z,98178.22
2023-06-04T16:19:24.471Z,98177.09
2023-06-04T16:21:50.882Z,98167.59
2023-06-04T16:24:17.499Z,98177.22
2023-06-04T16:26:43.917Z,98173.22
2023-06-04T16:29:10.236Z,98164.69
2023-06-04T16:31:36.595Z,98166.09
2023-06-04T16:34:03.289Z,98157.38
2023-06-04T16:36:30.598Z,98158.16
2023-06-04T16:38:57.820Z,98155.66
2023-06-04T16:41:24.086Z,98154.53
2023-06-04T16:43:50.468Z,98152.28
2023-06-04T16:46:16.818Z,98151.72
2023-06-04T16:48:43.256Z,98155.66
2023-06-04T16:51:09.687Z,98150.69
2023-06-04T16:53:36.027Z,98155.91
2023-06-04T16:56:02.497Z,98156.69
2023-06-04T16:58:28.785Z,98152.75
2023-06-04T17:00:55.249Z,98147.53
2023-06-04T17:03:21.902Z,98158.09
2023-06-04T17:05:48.385Z,98154.22
2023-06-04T17:08:14.713Z,98157.44
2023-06-04T17:10:41.054Z,98154.72
2023-06-04T17:13:07.441Z,98159.25
2023-06-04T17:15:33.892Z,98157.22
2023-06-04T17:18:00.292Z,98147.06
2023-06-04T17:20:27.474Z,98157.81
2023-06-04T17:22:53.876Z,98151.78
2023-06-04T17:25:20.238Z,98155.06
2023-06-04T17:27:46.589Z,98156.47
2023-06-04T17:30:13.172Z,98150.22
2023-06-04T17:32:39.552Z,98156.13
2023-06-04T17:35:06.611Z,98160.09
2023-06-04T17:37:32.954Z,98158.72
2023-06-04T17:39:59.338Z,98169.03
2023-06-04T17:42:25.706Z,98162.81
2023-06-04T17:44:52.229Z,98162.53
2023-06-04T17:47:18.664Z,98162.59
2023-06-04T17:49:45.388Z,98162.91
2023-06-04T17:52:11.760Z,98166.19
2023-06-04T17:54:38.228Z,98159.94
2023-06-04T17:57:04.808Z,98164.28
2023-06-04T17:59:31.376Z,98168.19
2023-06-04T18:01:57.761Z,98171.63
2023-06-04T18:04:24.183Z,98166.25
2023-06-04T18:06:50.724Z,98177.75
2023-06-04T18:09:17.087Z,98176.50
2023-06-04T18:11:43.428Z,98169.38
2023-06-04T18:14:09.847Z,98183.66
2023-06-04T18:16:36.410Z,98184.41
2023-06-04T18:19:02.779Z,98182.91
2023-06-04T18:21:29.173Z,98183.25
2023-06-04T18:23:55.597Z,98186.38
2023-06-04T18:26:22.021Z,98194.38
2023-06-04T18:28:48.458Z,98188.44
2023-06-04T18:31:14.961Z,98188.47
2023-06-04T18:33:54.499Z,98196.06
2023-06-04T18:36:21.008Z,98198.66
2023-06-04T18:38:47.467Z,98197.66
2023-06-04T18:41:14.496Z,98195.72
2023-06-04T18:43:40.837Z,98196.25
2023-06-04T18:46:07.489Z,98201.19
2023-06-04T18:48:33.991Z,98199.50
2023-06-04T18:51:00.350Z,98204.28
2023-06-04T18:53:26.986Z,98203.94
2023-06-04T18:55:53.311Z,98207.75
2023-06-04T18:58:19.790Z,98206.38
2023-06-04T19:00:46.206Z,98200.53
2023-06-04T19:03:12.769Z,98206.34
2023-06-04T19:05:39.115Z,98206.19
2023-06-04T19:08:05.716Z,98200.00
2023-06-04T19:10:32.149Z,98213.56
2023-06-04T19:12:58.494Z,98209.72
2023-06-04T19:15:25.032Z,98211.75
2023-06-04T19:17:51.512Z,98213.06
2023-06-04T19:20:18.039Z,98220.03
2023-06-04T19:22:44.534Z,98226.63
2023-06-04T19:25:10.946Z,98225.06
2023-06-04T19:27:37.476Z,98225.91
2023-06-04T19:30:04.100Z,98230.16
2023-06-04T19:32:30.485Z,98236.38
2023-06-04T19:34:56.986Z,98240.34
2023-06-04T19:37:23.357Z,98229.38
2023-06-04T19:39:49.824Z,98240.34
2023-06-04T19:42:16.157Z,98239.94
2023-06-04T19:44:42.537Z,98238.16
2023-06-04T19:47:09.015Z,98249.38
2023-06-04T19:49:35.394Z,98246.72
2023-06-04T19:52:01.790Z,98253.56
2023-06-04T19:54:28.146Z,98249.00
2023-06-04T19:56:54.511Z,98252.03
2023-06-04T19:59:20.925Z,98249.88
2023-06-04T20:01:47.286Z,98249.94
2023-06-04T20:04:13.850Z,98255.38
2023-06-04T20:06:40.301Z,98257.03
2023-06-04T20:09:06.763Z,98250.59
2023-06-04T20:11:33.132Z,98263.06
2023-06-04T20:13:59.688Z,98252.78
2023-06-04T20:16:26.202Z,98258.50
2023-06-04T20:18:52.763Z,98262.00
2023-06-04T20:21:19.120Z,98259.31
2023-06-04T20:23:45.500Z,98270.97
2023-06-04T20:26:11.908Z,98270.13
2023-06-04T20:28:38.236Z,98273.66
2023-06-04T20:31:04.632Z,98276.63
2023-06-04T20:33:31.075Z,98277.44
2023-06-04T20:35:57.528Z,98278.53
2023-06-04T20:38:23.856Z,98283.41
2023-06-04T20:40:50.374Z,98288.25
2023-06-04T20:43:16.818Z,98284.19
2023-06-04T20:45:43.261Z,98282.56
2023-06-04T20:48:09.874Z,98283.91
2023-06-04T20:50:36.317Z,98294.69
2023-06-04T20:53:02.699Z,98293.63
2023-06-04T20:55:29.078Z,98289.56
2023-06-04T20:57:55.433Z,98295.50
2023-06-04T21:00:21.780Z,98303.06
2023-06-04T21:02:48.269Z,98304.16
2023-06-04T21:05:14.749Z,98303.28
2023-06-04T21:07:41.095Z,98304.09
2023-06-04T21:10:07.667Z,98311.09
2023-06-04T21:12:34.003Z,98310.81
2023-06-04T21:15:00.434Z,98318.91
2023-06-04T21:17:26.861Z,98317.50
2023-06-04T21:19:53.291Z,98321.53
2023-06-04T21:22:19.666Z,98316.66
2023-06-04T21:24:46.135Z,98320.97
2023-06-04T21:27:12.626Z,98317.13
2023-06-04T21:29:38.989Z,98324.66
2023-06-04T21:32:05.850Z,98322.47
2023-06-04T21:34:32.249Z,98327.00
2023-06-04T21:36:58.604Z,98318.59
2023-06-04T21:39:25.038Z,98328.03
2023-06-04T21:41:51.388Z,98326.41
2023-06-04T21:44:17.733Z,98319.06
2023-06-04T21:46:44.524Z,98323.31
2023-06-04T21:49:10.842Z,98325.16
2023-06-04T21:51:39.932Z,98324.56
2023-06-04T21:54:06.417Z,98323.41
2023-06-04T21:56:32.738Z,98329.53
2023-06-04T21:58:59.076Z,98323.84
2023-06-04T22:01:25.476Z,98330.56
2023-06-04T22:03:51.995Z,98323.53
2023-06-04T22:06:18.479Z,98323.25
2023-06-04T22:08:44.882Z,98322.38
2023-06-04T22:11:11.565Z,98321.25
2023-06-04T22:13:37.948Z,98318.22
2023-06-04T22:16:05.319Z,98324.13
2023-06-04T22:18:44.448Z,98319.19
2023-06-04T22:21:18.119Z,98321.31
2023-06-04T22:23:44.501Z,98323.41
2023-06-04T22:26:15.869Z,98317.72
2023-06-04T22:28:48.065Z,98313.91
2023-06-04T22:31:14.419Z,98325.44
2023-06-04T22:33:40.763Z,98315.66
2023-06-04T22:36:07.811Z,98314.56
2023-06-04T22:38:34.856Z,98314.47
2023-06-04T22:41:01.293Z,98317.66
2023-06-04T22:43:27.748Z,98307.06
2023-06-04T22:45:54.149Z,98309.47
2023-06-04T22:48:20.593Z,98309.41
2023-06-04T22:50:47.013Z,98310.97
2023-06-04T22:53:13.361Z,98309.84
2023-06-04T22:55:39.844Z,98315.16
2023-06-04T22:58:06.292Z,98316.00
2023-06-04T23:00:32.657Z,98307.06
2023-06-04T23:02:59.138Z,98305.69
2023-06-04T23:05:25.549Z,98314.28
2023-06-04T23:07:51.920Z,98308.53
2023-06-04T23:10:18.254Z,98305.69
2023-06-04T23:12:44.685Z,98308.00
2023-06-04T23:15:20.841Z,98312.44
2023-06-04T23:17:48.060Z,98306.66
2023-06-04T23:20:14.686Z,98304.66
2023-06-04T23:22:41.082Z,98301.56
2023-06-04T23:25:07.998Z,98306.00
2023-06-04T23:27:34.359Z,98304.53
2023-06-04T23:30:01.036Z,98304.16
2023-06-04T23:32:27.423Z,98298.09
2023-06-04T23:34:53.852Z,98297.72
2023-06-04T23:37:20.201Z,98296.50
2023-06-04T23:39:46.578Z,98297.84
2023-06-04T23:42:13.008Z,98297.66
2023-06-04T23:44:39.436Z,98296.75
2023-06-04T23:47:05.864Z,98299.91
2023-06-04T23:49:32.304Z,98304.72
2023-06-04T23:51:58.717Z,98304.16
2023-06-04T23:54:25.067Z,98303.56
2023-06-04T23:56:51.421Z,98304.88
2023-06-04T23:59:18.116Z,98301.06
